VLG25NG LEZL-LECO
Flight info
| Callsign | VLG25NG |
|---|---|
| Flight time | 1h 8m |
| Altitude | 32000 |
| Route | HIJ M30 ZMR/N0451F310 N733 DESAT/N0408F230 N733 FORNO |
| Aircraft | A320/M-SDE3FGHIRWY/LB1 |
Departure
| Time | 2026-04-26 13:04 |
|---|---|
| Airport | Seville Airport (LEZL) |
Arrival
| Time | 2026-04-26 14:13 |
|---|---|
| Airport | A Coruña Airport (LECO) |
| Time | Latitude | Longitude | Altitude | Speed | Heading |
|---|---|---|---|---|---|
| 2026-04-26 12:34 | 37.42204 | -5.89958 | 116 ft | 0 kts | 345° |
| 2026-04-26 12:48 | 37.42199 | -5.89956 | 116 ft | 2 kts | 345° |
| 2026-04-26 12:48 | 37.42184 | -5.89951 | 115 ft | 2 kts | 345° |
| 2026-04-26 12:49 | 37.42170 | -5.89946 | 115 ft | 2 kts | 345° |
| 2026-04-26 12:49 | 37.42155 | -5.89941 | 116 ft | 2 kts | 345° |
| 2026-04-26 12:49 | 37.42146 | -5.89938 | 116 ft | 1 kts | 331° |
| 2026-04-26 12:49 | 37.42138 | -5.89917 | 115 ft | 2 kts | 258° |
| 2026-04-26 12:50 | 37.42141 | -5.89908 | 115 ft | 0 kts | 231° |
| 2026-04-26 12:50 | 37.42146 | -5.89903 | 115 ft | 1 kts | 224° |
| 2026-04-26 12:50 | 37.42147 | -5.89901 | 115 ft | 0 kts | 226° |
| 2026-04-26 12:52 | 37.42140 | -5.89909 | 115 ft | 3 kts | 226° |
| 2026-04-26 12:52 | 37.42104 | -5.89956 | 115 ft | 10 kts | 225° |
| 2026-04-26 12:52 | 37.42056 | -5.90006 | 115 ft | 0 kts | 226° |
| 2026-04-26 12:53 | 37.42054 | -5.90010 | 115 ft | 3 kts | 244° |
| 2026-04-26 12:53 | 37.42047 | -5.90045 | 115 ft | 7 kts | 258° |
| 2026-04-26 12:53 | 37.42007 | -5.90105 | 115 ft | 12 kts | 184° |
| 2026-04-26 12:53 | 37.41976 | -5.90150 | 115 ft | 10 kts | 274° |
| 2026-04-26 12:54 | 37.41978 | -5.90218 | 115 ft | 12 kts | 269° |
| 2026-04-26 12:54 | 37.41977 | -5.90335 | 115 ft | 14 kts | 272° |
| 2026-04-26 12:54 | 37.41978 | -5.90463 | 115 ft | 14 kts | 270° |
| 2026-04-26 12:54 | 37.41979 | -5.90595 | 115 ft | 15 kts | 271° |
| 2026-04-26 12:55 | 37.41978 | -5.90726 | 115 ft | 15 kts | 268° |
| 2026-04-26 12:55 | 37.41978 | -5.90902 | 115 ft | 15 kts | 270° |
| 2026-04-26 12:55 | 37.41976 | -5.91034 | 115 ft | 15 kts | 268° |
| 2026-04-26 12:55 | 37.41975 | -5.91168 | 115 ft | 15 kts | 270° |
| 2026-04-26 12:56 | 37.41972 | -5.91249 | 115 ft | 7 kts | 257° |
| 2026-04-26 12:56 | 37.41958 | -5.91285 | 115 ft | 0 kts | 236° |
| 2026-04-26 13:01 | 37.41958 | -5.91286 | 115 ft | 1 kts | 235° |
| 2026-04-26 13:02 | 37.41934 | -5.91314 | 115 ft | 2 kts | 195° |
| 2026-04-26 13:02 | 37.41911 | -5.91316 | 115 ft | 4 kts | 175° |
| 2026-04-26 13:02 | 37.41868 | -5.91286 | 115 ft | 10 kts | 130° |
| 2026-04-26 13:02 | 37.41815 | -5.91199 | 115 ft | 14 kts | 133° |
| 2026-04-26 13:03 | 37.41787 | -5.91134 | 115 ft | 0 kts | 90° |
| 2026-04-26 13:03 | 37.41787 | -5.91126 | 115 ft | 7 kts | 90° |
| 2026-04-26 13:04 | 37.41789 | -5.90720 | 116 ft | 84 kts | 90° |
| 2026-04-26 13:04 | 37.41795 | -5.89258 | 120 ft | 162 kts | 90° |
| 2026-04-26 13:04 | 37.41806 | -5.88268 | 269 ft | 179 kts | 90° |
| 2026-04-26 13:04 | 37.41819 | -5.86703 | 915 ft | 177 kts | 90° |
| 2026-04-26 13:05 | 37.41837 | -5.85199 | 1660 ft | 174 kts | 88° |
| 2026-04-26 13:05 | 37.41829 | -5.83143 | 2343 ft | 185 kts | 91° |
| 2026-04-26 13:05 | 37.41841 | -5.82041 | 2577 ft | 198 kts | 87° |
| 2026-04-26 13:05 | 37.42089 | -5.79630 | 3130 ft | 220 kts | 77° |
| 2026-04-26 13:06 | 37.42329 | -5.78357 | 3428 ft | 231 kts | 76° |
| 2026-04-26 13:06 | 37.42980 | -5.76430 | 3789 ft | 252 kts | 48° |
| 2026-04-26 13:06 | 37.44418 | -5.75109 | 4320 ft | 265 kts | 24° |
| 2026-04-26 13:06 | 37.46700 | -5.73789 | 5263 ft | 277 kts | 23° |
| 2026-04-26 13:07 | 37.47857 | -5.73121 | 5814 ft | 279 kts | 24° |
| 2026-04-26 13:07 | 37.49597 | -5.72104 | 6639 ft | 282 kts | 24° |
| 2026-04-26 13:07 | 37.51979 | -5.70694 | 7707 ft | 288 kts | 25° |
| 2026-04-26 13:07 | 37.53786 | -5.69610 | 8502 ft | 291 kts | 25° |
| 2026-04-26 13:08 | 37.55000 | -5.68877 | 9024 ft | 294 kts | 25° |
| 2026-04-26 13:08 | 37.56848 | -5.67763 | 9801 ft | 297 kts | 26° |
| 2026-04-26 13:08 | 37.58693 | -5.66645 | 10538 ft | 301 kts | 26° |
| 2026-04-26 13:08 | 37.60606 | -5.65487 | 11012 ft | 314 kts | 26° |
| 2026-04-26 13:09 | 37.63319 | -5.63841 | 11445 ft | 338 kts | 26° |
| 2026-04-26 13:09 | 37.64770 | -5.62958 | 11655 ft | 349 kts | 26° |
| 2026-04-26 13:09 | 37.66989 | -5.61609 | 12143 ft | 359 kts | 26° |
| 2026-04-26 13:09 | 37.69241 | -5.60240 | 12848 ft | 362 kts | 27° |
| 2026-04-26 13:10 | 37.71507 | -5.58863 | 13534 ft | 366 kts | 27° |
| 2026-04-26 13:10 | 37.74553 | -5.57009 | 14397 ft | 371 kts | 27° |
| 2026-04-26 13:10 | 37.76107 | -5.56062 | 14826 ft | 373 kts | 27° |
| 2026-04-26 13:10 | 37.79224 | -5.54162 | 15662 ft | 378 kts | 27° |
| 2026-04-26 13:11 | 37.81579 | -5.52725 | 16271 ft | 381 kts | 27° |
| 2026-04-26 13:11 | 37.83167 | -5.51755 | 16670 ft | 383 kts | 27° |
| 2026-04-26 13:11 | 37.85571 | -5.50287 | 17259 ft | 387 kts | 27° |
| 2026-04-26 13:11 | 37.88824 | -5.48298 | 18027 ft | 391 kts | 27° |
| 2026-04-26 13:12 | 37.91257 | -5.46809 | 18578 ft | 394 kts | 27° |
| 2026-04-26 13:12 | 37.92891 | -5.45808 | 18937 ft | 396 kts | 27° |
| 2026-04-26 13:12 | 37.95380 | -5.44283 | 19471 ft | 399 kts | 27° |
| 2026-04-26 13:12 | 37.98724 | -5.42232 | 20173 ft | 403 kts | 28° |
| 2026-04-26 13:13 | 38.00394 | -5.41207 | 20516 ft | 405 kts | 28° |
| 2026-04-26 13:13 | 38.02310 | -5.40031 | 20903 ft | 407 kts | 28° |
| 2026-04-26 13:13 | 38.05712 | -5.37939 | 21575 ft | 411 kts | 28° |
| 2026-04-26 13:13 | 38.08306 | -5.36344 | 22078 ft | 414 kts | 28° |
| 2026-04-26 13:14 | 38.10861 | -5.34772 | 22560 ft | 417 kts | 28° |
| 2026-04-26 13:14 | 38.13493 | -5.33148 | 23043 ft | 419 kts | 28° |
| 2026-04-26 13:14 | 38.15243 | -5.32067 | 23361 ft | 421 kts | 29° |
| 2026-04-26 13:14 | 38.17856 | -5.30451 | 23824 ft | 424 kts | 29° |
| 2026-04-26 13:15 | 38.20510 | -5.28810 | 24280 ft | 426 kts | 29° |
| 2026-04-26 13:15 | 38.24084 | -5.26600 | 24866 ft | 430 kts | 29° |
| 2026-04-26 13:15 | 38.25846 | -5.25510 | 25142 ft | 431 kts | 29° |
| 2026-04-26 13:15 | 38.28548 | -5.23838 | 25562 ft | 434 kts | 29° |
| 2026-04-26 13:16 | 38.31258 | -5.22159 | 25968 ft | 436 kts | 29° |
| 2026-04-26 13:16 | 38.34920 | -5.19889 | 26496 ft | 439 kts | 29° |
| 2026-04-26 13:16 | 38.37653 | -5.18194 | 26877 ft | 442 kts | 29° |
| 2026-04-26 13:16 | 38.40425 | -5.16473 | 27250 ft | 444 kts | 29° |
| 2026-04-26 13:17 | 38.45048 | -5.13599 | 27971 ft | 444 kts | 29° |
| 2026-04-26 13:17 | 38.47820 | -5.11963 | 28465 ft | 444 kts | 24° |
| 2026-04-26 13:18 | 38.53828 | -5.10365 | 29329 ft | 449 kts | 4° |
| 2026-04-26 13:18 | 38.57999 | -5.10593 | 29888 ft | 450 kts | 358° |
| 2026-04-26 13:18 | 38.63164 | -5.11174 | 30513 ft | 449 kts | 358° |
| 2026-04-26 13:19 | 38.66246 | -5.11522 | 30814 ft | 450 kts | 358° |
| 2026-04-26 13:19 | 38.69359 | -5.11860 | 31070 ft | 451 kts | 358° |
| 2026-04-26 13:19 | 38.72486 | -5.12190 | 31295 ft | 453 kts | 358° |
| 2026-04-26 13:19 | 38.76664 | -5.12622 | 31613 ft | 455 kts | 359° |
| 2026-04-26 13:20 | 38.79849 | -5.12950 | 31877 ft | 456 kts | 359° |
| 2026-04-26 13:20 | 38.82988 | -5.13272 | 32036 ft | 458 kts | 359° |
| 2026-04-26 13:20 | 38.85110 | -5.13489 | 32035 ft | 458 kts | 359° |
| 2026-04-26 13:21 | 38.91452 | -5.14136 | 32037 ft | 460 kts | 358° |
| 2026-04-26 13:21 | 38.97838 | -5.14780 | 32038 ft | 466 kts | 355° |
| 2026-04-26 13:22 | 39.05295 | -5.16101 | 32039 ft | 463 kts | 349° |
| 2026-04-26 13:22 | 39.10537 | -5.17269 | 32038 ft | 461 kts | 349° |
| 2026-04-26 13:23 | 39.17905 | -5.18902 | 32038 ft | 461 kts | 349° |
| 2026-04-26 13:23 | 39.23126 | -5.20050 | 32038 ft | 461 kts | 349° |
| 2026-04-26 13:24 | 39.29441 | -5.21436 | 32039 ft | 461 kts | 349° |
| 2026-04-26 13:24 | 39.35753 | -5.22823 | 32038 ft | 461 kts | 349° |
| 2026-04-26 13:25 | 39.42077 | -5.24216 | 32042 ft | 461 kts | 349° |
| 2026-04-26 13:25 | 39.49426 | -5.25838 | 32068 ft | 461 kts | 349° |
| 2026-04-26 13:26 | 39.55738 | -5.27234 | 32101 ft | 461 kts | 349° |
| 2026-04-26 13:26 | 39.60987 | -5.28398 | 32122 ft | 461 kts | 349° |
| 2026-04-26 13:27 | 39.67283 | -5.29797 | 32136 ft | 461 kts | 349° |
| 2026-04-26 13:27 | 39.73568 | -5.31197 | 32142 ft | 461 kts | 349° |
| 2026-04-26 13:28 | 39.79883 | -5.32515 | 32145 ft | 461 kts | 351° |
| 2026-04-26 13:28 | 39.86194 | -5.33604 | 32145 ft | 461 kts | 351° |
| 2026-04-26 13:29 | 39.92536 | -5.34701 | 32145 ft | 461 kts | 351° |
| 2026-04-26 13:29 | 39.98904 | -5.35826 | 32145 ft | 461 kts | 351° |
| 2026-04-26 13:30 | 40.05242 | -5.36955 | 32146 ft | 461 kts | 351° |
| 2026-04-26 13:30 | 40.12610 | -5.38271 | 32145 ft | 461 kts | 351° |
| 2026-04-26 13:31 | 40.17886 | -5.39212 | 32145 ft | 461 kts | 351° |
| 2026-04-26 13:31 | 40.24234 | -5.40349 | 32146 ft | 461 kts | 351° |
| 2026-04-26 13:32 | 40.31612 | -5.41676 | 32146 ft | 461 kts | 351° |
| 2026-04-26 13:32 | 40.36873 | -5.42625 | 32146 ft | 461 kts | 351° |
| 2026-04-26 13:33 | 40.44295 | -5.43966 | 32146 ft | 461 kts | 351° |
| 2026-04-26 13:33 | 40.49580 | -5.44923 | 32145 ft | 461 kts | 351° |
| 2026-04-26 13:34 | 40.56966 | -5.46263 | 32146 ft | 461 kts | 351° |
| 2026-04-26 13:34 | 40.62203 | -5.47216 | 32146 ft | 461 kts | 351° |
| 2026-04-26 13:35 | 40.68559 | -5.48373 | 32145 ft | 461 kts | 351° |
| 2026-04-26 13:35 | 40.74886 | -5.49527 | 32146 ft | 461 kts | 351° |
| 2026-04-26 13:36 | 40.81149 | -5.51140 | 32143 ft | 459 kts | 339° |
| 2026-04-26 13:36 | 40.85001 | -5.53477 | 32145 ft | 456 kts | 327° |
| 2026-04-26 13:36 | 40.86738 | -5.54988 | 32146 ft | 454 kts | 322° |
| 2026-04-26 13:37 | 40.91725 | -5.60055 | 32146 ft | 453 kts | 320° |
| 2026-04-26 13:37 | 40.96688 | -5.65204 | 32145 ft | 453 kts | 319° |
| 2026-04-26 13:38 | 41.01626 | -5.70294 | 32148 ft | 451 kts | 318° |
| 2026-04-26 13:38 | 41.06542 | -5.75345 | 32149 ft | 446 kts | 317° |
| 2026-04-26 13:39 | 41.11405 | -5.80335 | 32149 ft | 436 kts | 317° |
| 2026-04-26 13:39 | 41.16931 | -5.85990 | 32146 ft | 430 kts | 316° |
| 2026-04-26 13:40 | 41.20845 | -5.90015 | 32145 ft | 430 kts | 316° |
| 2026-04-26 13:40 | 41.25577 | -5.94894 | 32146 ft | 431 kts | 316° |
| 2026-04-26 13:41 | 41.30288 | -5.99759 | 32145 ft | 431 kts | 316° |
| 2026-04-26 13:41 | 41.34998 | -6.04634 | 32145 ft | 431 kts | 316° |
| 2026-04-26 13:42 | 41.39719 | -6.09530 | 32145 ft | 431 kts | 316° |
| 2026-04-26 13:42 | 41.44429 | -6.14422 | 32145 ft | 431 kts | 316° |
| 2026-04-26 13:43 | 41.49137 | -6.19323 | 32145 ft | 431 kts | 316° |
| 2026-04-26 13:43 | 41.53834 | -6.24222 | 32145 ft | 431 kts | 316° |
| 2026-04-26 13:44 | 41.58574 | -6.29174 | 32145 ft | 431 kts | 316° |
| 2026-04-26 13:44 | 41.63255 | -6.34074 | 32145 ft | 431 kts | 316° |
| 2026-04-26 13:45 | 41.67942 | -6.38991 | 32145 ft | 431 kts | 316° |
| 2026-04-26 13:45 | 41.72658 | -6.43946 | 32145 ft | 431 kts | 316° |
| 2026-04-26 13:46 | 41.77367 | -6.48905 | 32145 ft | 431 kts | 316° |
| 2026-04-26 13:46 | 41.82047 | -6.53842 | 32145 ft | 431 kts | 316° |
| 2026-04-26 13:47 | 41.86766 | -6.58830 | 32145 ft | 431 kts | 316° |
| 2026-04-26 13:47 | 41.91458 | -6.63799 | 32145 ft | 431 kts | 316° |
| 2026-04-26 13:48 | 41.96117 | -6.68759 | 32147 ft | 430 kts | 316° |
| 2026-04-26 13:48 | 42.00798 | -6.73752 | 32146 ft | 430 kts | 316° |
| 2026-04-26 13:49 | 42.05481 | -6.78745 | 32145 ft | 430 kts | 316° |
| 2026-04-26 13:49 | 42.10161 | -6.83738 | 32145 ft | 430 kts | 316° |
| 2026-04-26 13:50 | 42.14845 | -6.88735 | 32144 ft | 429 kts | 315° |
| 2026-04-26 13:50 | 42.19147 | -6.94173 | 31866 ft | 427 kts | 308° |
| 2026-04-26 13:50 | 42.21118 | -6.97169 | 31295 ft | 424 kts | 304° |
| 2026-04-26 13:51 | 42.22921 | -7.00257 | 30701 ft | 423 kts | 301° |
| 2026-04-26 13:51 | 42.24600 | -7.03473 | 30064 ft | 421 kts | 300° |
| 2026-04-26 13:51 | 42.26227 | -7.06723 | 29435 ft | 421 kts | 299° |
| 2026-04-26 13:51 | 42.28403 | -7.11088 | 28559 ft | 421 kts | 299° |
| 2026-04-26 13:52 | 42.29497 | -7.13278 | 28105 ft | 421 kts | 299° |
| 2026-04-26 13:52 | 42.31128 | -7.16546 | 27415 ft | 421 kts | 300° |
| 2026-04-26 13:52 | 42.32740 | -7.19777 | 26839 ft | 418 kts | 300° |
| 2026-04-26 13:52 | 42.34351 | -7.23004 | 26390 ft | 413 kts | 300° |
| 2026-04-26 13:53 | 42.35936 | -7.26188 | 25925 ft | 408 kts | 300° |
| 2026-04-26 13:53 | 42.37514 | -7.29363 | 25450 ft | 403 kts | 300° |
| 2026-04-26 13:53 | 42.39057 | -7.32474 | 24990 ft | 399 kts | 300° |
| 2026-04-26 13:53 | 42.40590 | -7.35564 | 24525 ft | 396 kts | 300° |
| 2026-04-26 13:54 | 42.42106 | -7.38622 | 24063 ft | 392 kts | 300° |
| 2026-04-26 13:54 | 42.43630 | -7.41703 | 23600 ft | 388 kts | 300° |
| 2026-04-26 13:54 | 42.45125 | -7.44679 | 23147 ft | 387 kts | 303° |
| 2026-04-26 13:55 | 42.48874 | -7.49856 | 22225 ft | 389 kts | 318° |
| 2026-04-26 13:55 | 42.50362 | -7.51283 | 21919 ft | 389 kts | 322° |
| 2026-04-26 13:55 | 42.55596 | -7.55864 | 20878 ft | 383 kts | 323° |
| 2026-04-26 13:56 | 42.57811 | -7.57790 | 20429 ft | 380 kts | 323° |
| 2026-04-26 13:56 | 42.60042 | -7.59737 | 19973 ft | 377 kts | 323° |
| 2026-04-26 13:56 | 42.62217 | -7.61641 | 19529 ft | 375 kts | 323° |
| 2026-04-26 13:56 | 42.64387 | -7.63544 | 19080 ft | 372 kts | 323° |
| 2026-04-26 13:57 | 42.66578 | -7.65470 | 18627 ft | 370 kts | 322° |
| 2026-04-26 13:57 | 42.68716 | -7.67362 | 18186 ft | 368 kts | 322° |
| 2026-04-26 13:57 | 42.70848 | -7.69252 | 17742 ft | 365 kts | 322° |
| 2026-04-26 13:57 | 42.73649 | -7.71733 | 17154 ft | 363 kts | 322° |
| 2026-04-26 13:58 | 42.75055 | -7.72978 | 16858 ft | 361 kts | 322° |
| 2026-04-26 13:58 | 42.77158 | -7.74839 | 16415 ft | 359 kts | 323° |
| 2026-04-26 13:58 | 42.79286 | -7.76544 | 15958 ft | 360 kts | 330° |
| 2026-04-26 13:58 | 42.81574 | -7.77878 | 15443 ft | 360 kts | 334° |
| 2026-04-26 13:59 | 42.83914 | -7.79129 | 15003 ft | 356 kts | 334° |
| 2026-04-26 13:59 | 42.86172 | -7.80342 | 14622 ft | 351 kts | 334° |
| 2026-04-26 13:59 | 42.88415 | -7.81569 | 14246 ft | 345 kts | 334° |
| 2026-04-26 14:00 | 42.94949 | -7.85230 | 13027 ft | 334 kts | 333° |
| 2026-04-26 14:00 | 42.97068 | -7.86433 | 12602 ft | 331 kts | 332° |
| 2026-04-26 14:00 | 42.98461 | -7.87226 | 12321 ft | 329 kts | 332° |
| 2026-04-26 14:01 | 43.01269 | -7.88829 | 11754 ft | 325 kts | 332° |
| 2026-04-26 14:01 | 43.03342 | -7.90016 | 11358 ft | 321 kts | 332° |
| 2026-04-26 14:01 | 43.05375 | -7.91183 | 10990 ft | 317 kts | 332° |
| 2026-04-26 14:01 | 43.07380 | -7.92334 | 10650 ft | 311 kts | 332° |
| 2026-04-26 14:02 | 43.09348 | -7.93463 | 10341 ft | 305 kts | 332° |
| 2026-04-26 14:02 | 43.11279 | -7.94568 | 10142 ft | 295 kts | 332° |
| 2026-04-26 14:02 | 43.13780 | -7.95993 | 9752 ft | 287 kts | 332° |
| 2026-04-26 14:02 | 43.14990 | -7.96685 | 9574 ft | 283 kts | 332° |
| 2026-04-26 14:03 | 43.16775 | -7.97712 | 9255 ft | 279 kts | 332° |
| 2026-04-26 14:03 | 43.18559 | -7.98736 | 8865 ft | 278 kts | 332° |
| 2026-04-26 14:03 | 43.20337 | -7.99761 | 8519 ft | 275 kts | 332° |
| 2026-04-26 14:03 | 43.22078 | -8.00772 | 8201 ft | 266 kts | 333° |
| 2026-04-26 14:04 | 43.24274 | -8.02032 | 7838 ft | 256 kts | 332° |
| 2026-04-26 14:04 | 43.25370 | -8.02672 | 7643 ft | 254 kts | 335° |
| 2026-04-26 14:04 | 43.26969 | -8.03612 | 7403 ft | 249 kts | 336° |
| 2026-04-26 14:04 | 43.29067 | -8.04815 | 7092 ft | 243 kts | 337° |
| 2026-04-26 14:05 | 43.30610 | -8.05701 | 6833 ft | 240 kts | 337° |
| 2026-04-26 14:05 | 43.31646 | -8.06297 | 6652 ft | 239 kts | 337° |
| 2026-04-26 14:05 | 43.33158 | -8.07170 | 6380 ft | 237 kts | 338° |
| 2026-04-26 14:05 | 43.35179 | -8.08338 | 6008 ft | 235 kts | 338° |
| 2026-04-26 14:06 | 43.36174 | -8.08914 | 5823 ft | 234 kts | 338° |
| 2026-04-26 14:06 | 43.37655 | -8.09772 | 5547 ft | 233 kts | 339° |
| 2026-04-26 14:06 | 43.39140 | -8.10633 | 5268 ft | 232 kts | 339° |
| 2026-04-26 14:06 | 43.40633 | -8.11502 | 4987 ft | 231 kts | 337° |
| 2026-04-26 14:07 | 43.41958 | -8.12765 | 4453 ft | 244 kts | 317° |
| 2026-04-26 14:07 | 43.43079 | -8.14585 | 3870 ft | 254 kts | 311° |
| 2026-04-26 14:07 | 43.44167 | -8.16486 | 3573 ft | 251 kts | 312° |
| 2026-04-26 14:07 | 43.45255 | -8.18327 | 3342 ft | 245 kts | 313° |
| 2026-04-26 14:08 | 43.46333 | -8.20104 | 3168 ft | 237 kts | 310° |
| 2026-04-26 14:08 | 43.46981 | -8.22106 | 3086 ft | 232 kts | 275° |
| 2026-04-26 14:08 | 43.46580 | -8.24206 | 3072 ft | 228 kts | 233° |
| 2026-04-26 14:08 | 43.44973 | -8.25880 | 3247 ft | 209 kts | 208° |
| 2026-04-26 14:09 | 43.44127 | -8.26476 | 3218 ft | 200 kts | 207° |
| 2026-04-26 14:09 | 43.42924 | -8.27340 | 3031 ft | 192 kts | 208° |
| 2026-04-26 14:09 | 43.41801 | -8.28210 | 2821 ft | 177 kts | 210° |
| 2026-04-26 14:09 | 43.40462 | -8.29303 | 2486 ft | 161 kts | 210° |
| 2026-04-26 14:10 | 43.39831 | -8.29826 | 2303 ft | 157 kts | 211° |
| 2026-04-26 14:10 | 43.38909 | -8.30624 | 2113 ft | 156 kts | 212° |
| 2026-04-26 14:10 | 43.37993 | -8.31404 | 1908 ft | 155 kts | 210° |
| 2026-04-26 14:10 | 43.37067 | -8.32119 | 1707 ft | 153 kts | 208° |
| 2026-04-26 14:11 | 43.35242 | -8.33633 | 1382 ft | 151 kts | 206° |
| 2026-04-26 14:11 | 43.34334 | -8.34333 | 1158 ft | 152 kts | 210° |
| 2026-04-26 14:11 | 43.33148 | -8.35346 | 857 ft | 149 kts | 207° |
| 2026-04-26 14:12 | 43.32551 | -8.35812 | 710 ft | 148 kts | 208° |
| 2026-04-26 14:12 | 43.31676 | -8.36535 | 552 ft | 148 kts | 208° |
| 2026-04-26 14:12 | 43.30789 | -8.37249 | 351 ft | 143 kts | 209° |
| 2026-04-26 14:12 | 43.29931 | -8.37948 | 336 ft | 75 kts | 212° |
| 2026-04-26 14:13 | 43.29416 | -8.38372 | 336 ft | 32 kts | 212° |
| 2026-04-26 14:13 | 43.29266 | -8.38520 | 336 ft | 20 kts | 239° |
| 2026-04-26 14:13 | 43.29214 | -8.38516 | 335 ft | 11 kts | 39° |
| 2026-04-26 14:14 | 43.29296 | -8.38465 | 335 ft | 15 kts | 31° |
| 2026-04-26 14:14 | 43.29366 | -8.38408 | 335 ft | 19 kts | 31° |
| 2026-04-26 14:14 | 43.29493 | -8.38302 | 336 ft | 23 kts | 30° |
| 2026-04-26 14:14 | 43.29648 | -8.38179 | 336 ft | 26 kts | 31° |
| 2026-04-26 14:15 | 43.29806 | -8.38055 | 336 ft | 25 kts | 30° |
| 2026-04-26 14:15 | 43.29921 | -8.37984 | 335 ft | 14 kts | 339° |
| 2026-04-26 14:15 | 43.30000 | -8.38070 | 336 ft | 14 kts | 346° |
| 2026-04-26 14:15 | 43.30098 | -8.38056 | 336 ft | 10 kts | 22° |
| 2026-04-26 14:16 | 43.30138 | -8.38060 | 335 ft | 2 kts | 323° |
| 2026-04-26 14:16 | 43.30157 | -8.38079 | 336 ft | 2 kts | 325° |
| 2026-04-26 14:16 | 43.30162 | -8.38084 | 335 ft | 0 kts | 324° |